createdAt,value
2022-09-18T00:01:33.028Z,8.83
2022-09-18T00:04:06.050Z,8.90
2022-09-18T00:06:36.471Z,8.93
2022-09-18T00:09:06.275Z,8.98
2022-09-18T00:11:44.682Z,8.98
2022-09-18T00:14:20.086Z,8.92
2022-09-18T00:16:47.575Z,8.92
2022-09-18T00:19:15.954Z,8.90
2022-09-18T00:21:45.793Z,8.87
2022-09-18T00:24:13.270Z,8.93
2022-09-18T00:26:40.872Z,9.02
2022-09-18T00:29:12.434Z,9.04
2022-09-18T00:31:39.795Z,9.02
2022-09-18T00:34:10.540Z,9.03
2022-09-18T00:36:39.618Z,9.11
2022-09-18T00:39:07.398Z,9.12
2022-09-18T00:41:40.696Z,9.08
2022-09-18T00:44:29.704Z,9.08
2022-09-18T00:47:11.923Z,9.15
2022-09-18T00:49:51.285Z,9.19
2022-09-18T00:52:21.933Z,9.25
2022-09-18T00:54:55.351Z,9.28
2022-09-18T00:57:27.543Z,9.32
2022-09-18T00:59:54.937Z,9.36
2022-09-18T01:02:22.099Z,9.41
2022-09-18T01:04:50.355Z,9.41
2022-09-18T01:07:41.856Z,9.43
2022-09-18T01:10:17.811Z,9.53
2022-09-18T01:12:56.231Z,9.56
2022-09-18T01:15:29.256Z,9.52
2022-09-18T01:18:24.195Z,9.50
2022-09-18T01:21:05.207Z,9.61
2022-09-18T01:23:52.846Z,9.71
2022-09-18T01:26:19.698Z,9.84
2022-09-18T01:28:55.795Z,9.88
2022-09-18T01:31:38.605Z,9.86
2022-09-18T01:34:20.908Z,9.89
2022-09-18T01:36:53.471Z,9.91
2022-09-18T01:40:16.647Z,9.91
2022-09-18T01:42:47.426Z,9.95
2022-09-18T01:45:27.888Z,10.01
2022-09-18T01:48:05.834Z,10.02
2022-09-18T01:50:42.501Z,10.10
2022-09-18T01:53:15.910Z,10.17
2022-09-18T01:55:51.752Z,10.17
2022-09-18T01:58:22.971Z,10.15
2022-09-18T02:00:55.177Z,10.09
2022-09-18T02:03:31.080Z,10.06
2022-09-18T02:06:04.035Z,9.99
2022-09-18T02:08:32.460Z,9.91
2022-09-18T02:11:08.524Z,9.85
2022-09-18T02:13:42.630Z,9.79
2022-09-18T02:16:23.351Z,9.71
2022-09-18T02:18:55.270Z,9.58
2022-09-18T02:21:27.530Z,9.55
2022-09-18T02:24:07.871Z,9.49
2022-09-18T02:26:38.473Z,9.52
2022-09-18T02:29:09.169Z,9.51
2022-09-18T02:31:42.748Z,9.53
2022-09-18T02:34:12.534Z,9.50
2022-09-18T02:36:54.860Z,9.53
2022-09-18T02:39:38.464Z,9.58
2022-09-18T02:42:31.801Z,9.62
2022-09-18T02:45:36.802Z,9.64
2022-09-18T02:48:32.015Z,9.65
2022-09-18T02:51:03.980Z,9.61
2022-09-18T02:54:01.414Z,9.59
2022-09-18T02:56:47.896Z,9.53
2022-09-18T02:59:45.315Z,9.57
2022-09-18T03:02:14.689Z,9.59
2022-09-18T03:04:42.420Z,9.56
2022-09-18T03:07:18.832Z,9.62
2022-09-18T03:09:48.440Z,9.67
2022-09-18T03:12:18.628Z,9.69
2022-09-18T03:14:48.358Z,9.78
2022-09-18T03:17:15.547Z,9.93
2022-09-18T03:19:44.824Z,9.97
2022-09-18T03:22:13.120Z,9.91
2022-09-18T03:24:40.292Z,9.87
2022-09-18T03:27:10.865Z,9.86
2022-09-18T03:29:37.988Z,9.84
2022-09-18T03:32:07.561Z,9.81
2022-09-18T03:34:46.947Z,9.85
2022-09-18T03:37:15.228Z,9.85
2022-09-18T03:39:42.334Z,9.88
2022-09-18T03:42:13.292Z,9.86
2022-09-18T03:44:40.559Z,9.82
2022-09-18T03:47:17.348Z,9.76
2022-09-18T03:49:44.388Z,9.70
2022-09-18T03:52:11.238Z,9.57
2022-09-18T03:54:48.468Z,9.54
2022-09-18T03:57:35.249Z,9.51
2022-09-18T04:00:25.820Z,9.48
2022-09-18T04:02:58.399Z,9.45
2022-09-18T04:05:31.536Z,9.36
2022-09-18T04:08:17.686Z,9.34
2022-09-18T04:11:07.489Z,9.28
2022-09-18T04:13:37.461Z,9.21
2022-09-18T04:16:08.340Z,9.19
2022-09-18T04:18:35.273Z,9.22
2022-09-18T04:21:03.602Z,9.17
2022-09-18T04:23:30.748Z,9.20
2022-09-18T04:25:58.287Z,9.30
2022-09-18T04:28:30.331Z,9.30
2022-09-18T04:30:58.477Z,9.23
2022-09-18T04:33:25.849Z,9.16
2022-09-18T04:35:54.136Z,9.16
2022-09-18T04:38:27.470Z,9.13
2022-09-18T04:40:58.914Z,9.20
2022-09-18T04:43:28.944Z,9.29
2022-09-18T04:45:55.981Z,9.33
2022-09-18T04:48:23.589Z,9.44
2022-09-18T04:50:51.823Z,9.61
2022-09-18T04:53:19.789Z,9.68
2022-09-18T04:55:47.974Z,9.76
2022-09-18T04:58:17.573Z,9.81
2022-09-18T05:00:50.835Z,9.91
2022-09-18T05:03:21.215Z,9.94
2022-09-18T05:05:50.442Z,9.96
2022-09-18T05:08:18.065Z,9.99
2022-09-18T05:10:45.295Z,10.05
2022-09-18T05:13:15.212Z,10.10
2022-09-18T05:15:58.480Z,10.12
2022-09-18T05:18:28.864Z,10.13
2022-09-18T05:21:07.626Z,10.17
2022-09-18T05:23:34.664Z,10.18
2022-09-18T05:26:02.731Z,10.20
2022-09-18T05:28:29.619Z,10.24
2022-09-18T05:31:01.879Z,10.27
2022-09-18T05:33:36.834Z,10.28
2022-09-18T05:36:05.659Z,10.34
2022-09-18T05:38:33.802Z,10.40
2022-09-18T05:41:02.744Z,10.53
2022-09-18T05:43:30.342Z,10.53
2022-09-18T05:45:57.450Z,10.60
2022-09-18T05:48:36.103Z,10.62
2022-09-18T05:51:05.522Z,10.67
2022-09-18T05:53:32.596Z,10.69
2022-09-18T05:56:16.628Z,10.82
2022-09-18T05:58:44.479Z,10.83
2022-09-18T06:01:14.568Z,10.84
2022-09-18T06:04:05.513Z,10.93
2022-09-18T06:06:43.960Z,10.91
2022-09-18T06:09:11.991Z,10.96
2022-09-18T06:11:42.225Z,10.97
2022-09-18T06:14:09.268Z,11.03
2022-09-18T06:16:40.015Z,10.95
2022-09-18T06:19:10.159Z,11.12
2022-09-18T06:21:37.427Z,11.24
2022-09-18T06:24:07.167Z,11.16
2022-09-18T06:26:40.651Z,11.21
2022-09-18T06:29:07.978Z,11.03
2022-09-18T06:31:46.046Z,10.83
2022-09-18T06:34:18.618Z,10.68
2022-09-18T06:36:46.734Z,10.67
2022-09-18T06:39:23.607Z,10.70
2022-09-18T06:41:55.264Z,10.58
2022-09-18T06:44:42.300Z,10.60
2022-09-18T06:47:09.665Z,10.60
2022-09-18T06:49:41.958Z,10.61
2022-09-18T06:52:09.114Z,10.65
2022-09-18T06:54:38.028Z,10.73
2022-09-18T06:57:07.125Z,10.77
2022-09-18T06:59:34.056Z,10.97
2022-09-18T07:02:01.407Z,11.62
2022-09-18T07:04:47.388Z,12.50
2022-09-18T07:07:17.006Z,13.15
2022-09-18T07:09:49.478Z,13.83
2022-09-18T07:12:35.171Z,13.71
2022-09-18T07:15:04.541Z,14.95
2022-09-18T07:17:31.722Z,16.70
2022-09-18T07:19:59.933Z,18.75
2022-09-18T07:22:36.869Z,20.63
2022-09-18T07:25:05.835Z,20.60
2022-09-18T07:27:32.826Z,19.35
2022-09-18T07:30:00.294Z,19.80
2022-09-18T07:32:27.929Z,21.11
2022-09-18T07:34:56.975Z,22.27
2022-09-18T07:37:29.598Z,23.02
2022-09-18T07:40:13.420Z,20.63
2022-09-18T07:43:10.213Z,17.72
2022-09-18T07:45:44.498Z,17.19
2022-09-18T07:48:12.199Z,16.43
2022-09-18T07:50:46.586Z,16.26
2022-09-18T07:53:18.710Z,16.68
2022-09-18T07:55:49.076Z,17.01
2022-09-18T07:58:19.135Z,17.67
2022-09-18T08:01:02.941Z,18.88
2022-09-18T08:03:32.290Z,17.51
2022-09-18T08:06:11.069Z,17.34
2022-09-18T08:08:46.632Z,19.90
2022-09-18T08:11:32.497Z,20.35
2022-09-18T08:14:09.167Z,19.50
2022-09-18T08:16:42.832Z,19.78
2022-09-18T08:19:30.972Z,18.59
2022-09-18T08:22:39.492Z,18.11
2022-09-18T08:25:11.084Z,16.71
2022-09-18T08:27:39.062Z,16.08
2022-09-18T08:30:08.379Z,15.58
2022-09-18T08:32:36.141Z,15.95
2022-09-18T08:35:04.412Z,16.72
2022-09-18T08:37:33.397Z,16.57
2022-09-18T08:40:49.291Z,16.62
2022-09-18T08:43:39.119Z,17.72
2022-09-18T08:46:12.319Z,18.43
2022-09-18T08:48:50.662Z,18.50
2022-09-18T08:51:26.279Z,17.07
2022-09-18T08:54:04.226Z,16.16
2022-09-18T08:56:51.488Z,16.38
2022-09-18T08:59:38.344Z,16.70
2022-09-18T09:02:24.993Z,16.97
2022-09-18T09:04:58.513Z,16.86
2022-09-18T09:07:58.457Z,16.76
2022-09-18T09:10:26.597Z,16.45
2022-09-18T09:13:19.558Z,16.11
2022-09-18T09:15:59.478Z,16.50
2022-09-18T09:18:40.861Z,16.42
2022-09-18T09:21:20.244Z,17.18
2022-09-18T09:24:13.783Z,17.12
2022-09-18T09:27:10.704Z,16.70
2022-09-18T09:30:13.354Z,16.45
2022-09-18T09:33:31.295Z,16.08
2022-09-18T09:36:25.359Z,15.54
2022-09-18T09:39:18.102Z,15.24
2022-09-18T09:41:54.470Z,15.18
2022-09-18T09:44:41.660Z,15.11
2022-09-18T09:47:18.119Z,14.92
2022-09-18T09:49:57.250Z,14.96
2022-09-18T09:52:31.695Z,14.73
2022-09-18T09:55:14.632Z,14.66
2022-09-18T09:58:06.609Z,14.82
2022-09-18T10:00:41.275Z,14.62
2022-09-18T10:03:46.786Z,15.71
2022-09-18T10:06:36.907Z,15.48
2022-09-18T10:09:43.717Z,15.88
2022-09-18T10:12:46.908Z,15.60
2022-09-18T10:15:23.360Z,16.00
2022-09-18T10:17:57.829Z,16.27
2022-09-18T10:20:31.164Z,16.48
2022-09-18T10:23:12.189Z,16.15
2022-09-18T10:25:46.729Z,15.99
2022-09-18T10:28:15.085Z,16.02
2022-09-18T10:31:02.058Z,16.11
2022-09-18T10:33:37.784Z,15.68
2022-09-18T10:36:09.356Z,15.53
2022-09-18T10:38:39.346Z,15.34
2022-09-18T10:41:39.446Z,15.16
2022-09-18T10:44:12.635Z,15.01
2022-09-18T10:46:57.471Z,15.67
2022-09-18T10:49:31.555Z,16.31
2022-09-18T10:52:32.149Z,16.37
2022-09-18T10:55:07.718Z,16.66
2022-09-18T10:57:39.275Z,16.62
2022-09-18T11:00:30.042Z,16.86
2022-09-18T11:03:20.946Z,16.85
2022-09-18T11:06:02.666Z,17.37
2022-09-18T11:08:37.287Z,17.44
2022-09-18T11:11:13.686Z,17.72
2022-09-18T11:13:51.986Z,17.53
2022-09-18T11:16:28.593Z,17.39
2022-09-18T11:19:12.884Z,17.19
2022-09-18T11:21:46.277Z,16.95
2022-09-18T11:24:24.498Z,16.97
2022-09-18T11:26:59.212Z,16.55
2022-09-18T11:29:31.336Z,16.45
2022-09-18T11:32:05.049Z,16.48
2022-09-18T11:34:39.934Z,16.32
2022-09-18T11:37:14.183Z,15.59
2022-09-18T11:39:45.486Z,14.61
2022-09-18T11:42:17.365Z,13.98
2022-09-18T11:44:47.880Z,12.94
2022-09-18T11:47:17.494Z,13.06
2022-09-18T11:49:52.526Z,13.61
2022-09-18T11:52:44.340Z,13.87
2022-09-18T11:55:31.097Z,13.89
2022-09-18T11:58:08.540Z,14.21
2022-09-18T12:00:42.497Z,14.78
2022-09-18T12:03:34.178Z,14.71
2022-09-18T12:06:21.586Z,14.62
2022-09-18T12:09:00.433Z,14.84
2022-09-18T12:11:49.092Z,14.82
2022-09-18T12:14:26.463Z,14.86
2022-09-18T12:17:36.986Z,14.89
2022-09-18T12:20:14.030Z,15.05
2022-09-18T12:22:52.365Z,15.09
2022-09-18T12:25:42.779Z,15.40
2022-09-18T12:28:28.249Z,15.65
2022-09-18T12:31:19.419Z,15.74
2022-09-18T12:34:08.660Z,15.54
2022-09-18T12:36:54.269Z,15.05
2022-09-18T12:39:31.371Z,14.68
2022-09-18T12:42:07.628Z,14.14
2022-09-18T12:44:52.485Z,12.87
2022-09-18T12:47:25.676Z,12.00
2022-09-18T12:50:12.003Z,11.46
2022-09-18T12:53:08.561Z,11.14
2022-09-18T12:55:44.912Z,10.93
2022-09-18T12:58:32.820Z,10.90
2022-09-18T13:01:08.849Z,10.88
2022-09-18T13:03:39.611Z,11.04
2022-09-18T13:06:12.050Z,11.42
2022-09-18T13:08:45.957Z,11.81
2022-09-18T13:11:44.758Z,12.09
2022-09-18T13:14:39.870Z,12.00
2022-09-18T13:17:19.489Z,11.97
2022-09-18T13:19:57.688Z,12.03
2022-09-18T13:22:34.501Z,12.06
2022-09-18T13:25:20.345Z,12.01
2022-09-18T13:27:47.638Z,11.95
2022-09-18T13:30:22.876Z,11.76
2022-09-18T13:32:49.892Z,11.67
2022-09-18T13:35:26.552Z,11.78
2022-09-18T13:38:19.088Z,12.20
2022-09-18T13:40:56.145Z,12.37
2022-09-18T13:43:29.505Z,12.67
2022-09-18T13:45:59.746Z,12.98
2022-09-18T13:48:40.806Z,12.79
2022-09-18T13:51:17.638Z,12.79
2022-09-18T13:53:44.954Z,12.68
2022-09-18T13:56:17.316Z,12.45
2022-09-18T13:58:50.176Z,12.51
2022-09-18T14:01:40.317Z,12.34
2022-09-18T14:04:38.737Z,12.32
2022-09-18T14:07:17.038Z,12.44
2022-09-18T14:09:47.350Z,12.52
2022-09-18T14:12:16.847Z,12.64
2022-09-18T14:14:56.739Z,12.80
2022-09-18T14:17:29.719Z,12.90
2022-09-18T14:20:09.475Z,13.07
2022-09-18T14:22:40.369Z,13.11
2022-09-18T14:25:12.168Z,13.09
2022-09-18T14:27:57.309Z,13.11
2022-09-18T14:30:27.308Z,12.99
2022-09-18T14:33:03.590Z,12.78
2022-09-18T14:35:52.379Z,12.63
2022-09-18T14:38:22.759Z,12.52
2022-09-18T14:41:09.284Z,12.42
2022-09-18T14:43:40.410Z,12.34
2022-09-18T14:46:17.926Z,12.25
2022-09-18T14:48:53.649Z,12.31
2022-09-18T14:51:44.848Z,12.42
2022-09-18T14:54:26.739Z,12.42
2022-09-18T14:56:58.331Z,12.46
2022-09-18T14:59:28.861Z,12.48
2022-09-18T15:02:22.904Z,12.56
2022-09-18T15:04:52.472Z,12.52
2022-09-18T15:07:22.467Z,12.51
2022-09-18T15:09:54.298Z,12.56
2022-09-18T15:12:26.322Z,12.57
2022-09-18T15:14:53.824Z,12.57
2022-09-18T15:17:28.412Z,12.56
2022-09-18T15:19:58.742Z,12.56
2022-09-18T15:22:28.773Z,12.52
2022-09-18T15:25:00.964Z,12.51
2022-09-18T15:27:30.194Z,12.53
2022-09-18T15:30:08.514Z,12.57
2022-09-18T15:32:43.954Z,12.51
2022-09-18T15:35:21.860Z,12.45
2022-09-18T15:37:59.767Z,12.46
2022-09-18T15:40:38.473Z,12.48
2022-09-18T15:43:27.788Z,12.39
2022-09-18T15:46:06.802Z,12.36
2022-09-18T15:48:39.769Z,12.42
2022-09-18T15:51:08.555Z,12.36
2022-09-18T15:53:37.347Z,12.32
2022-09-18T15:56:10.542Z,12.27
2022-09-18T15:58:42.856Z,12.23
2022-09-18T16:01:23.128Z,12.21
2022-09-18T16:04:00.356Z,12.18
2022-09-18T16:06:32.337Z,12.12
2022-09-18T16:09:05.453Z,12.08
2022-09-18T16:11:46.420Z,12.03
2022-09-18T16:14:41.328Z,12.02
2022-09-18T16:17:32.883Z,11.98
2022-09-18T16:20:28.496Z,11.90
2022-09-18T16:23:21.337Z,11.86
2022-09-18T16:26:04.377Z,11.84
2022-09-18T16:28:41.075Z,11.83
2022-09-18T16:31:11.073Z,11.82
2022-09-18T16:33:48.676Z,11.79
2022-09-18T16:36:38.350Z,11.76
2022-09-18T16:39:12.215Z,11.70
2022-09-18T16:41:40.502Z,11.59
2022-09-18T16:44:11.709Z,11.51
2022-09-18T16:46:46.212Z,11.45
2022-09-18T16:49:17.723Z,11.44
2022-09-18T16:51:48.974Z,11.37
2022-09-18T16:54:16.742Z,11.38
2022-09-18T16:56:51.575Z,11.32
2022-09-18T16:59:27.338Z,11.33
2022-09-18T17:02:04.935Z,11.24
2022-09-18T17:04:34.574Z,11.14
2022-09-18T17:07:02.296Z,11.05
2022-09-18T17:09:30.731Z,11.17
2022-09-18T17:11:57.944Z,11.24
2022-09-18T17:14:26.025Z,11.22
2022-09-18T17:16:54.452Z,11.27
2022-09-18T17:19:22.388Z,11.35
2022-09-18T17:21:52.573Z,11.35
2022-09-18T17:24:25.954Z,11.34
2022-09-18T17:26:54.423Z,11.34
2022-09-18T17:29:22.783Z,11.35
2022-09-18T17:31:52.725Z,11.35
2022-09-18T17:34:22.356Z,11.37
2022-09-18T17:36:49.729Z,11.32
2022-09-18T17:39:18.664Z,11.33
2022-09-18T17:41:46.223Z,11.31
2022-09-18T17:44:15.233Z,11.39
2022-09-18T17:46:42.546Z,11.45
2022-09-18T17:49:10.304Z,11.51
2022-09-18T17:51:38.758Z,11.53
2022-09-18T17:54:06.213Z,11.55
2022-09-18T17:56:34.104Z,11.53
2022-09-18T17:59:11.376Z,11.51
2022-09-18T18:01:43.701Z,11.49
2022-09-18T18:04:11.259Z,11.56
2022-09-18T18:06:38.767Z,11.75
2022-09-18T18:09:10.528Z,11.78
2022-09-18T18:11:38.034Z,11.73
2022-09-18T18:14:08.006Z,11.68
2022-09-18T18:16:37.746Z,11.68
2022-09-18T18:19:08.688Z,11.65
2022-09-18T18:21:36.946Z,11.61
2022-09-18T18:24:09.181Z,11.61
2022-09-18T18:26:38.183Z,11.65
2022-09-18T18:29:11.084Z,11.65
2022-09-18T18:31:40.853Z,11.64
2022-09-18T18:34:11.225Z,11.62
2022-09-18T18:36:41.628Z,11.57
2022-09-18T18:39:14.996Z,11.56
2022-09-18T18:41:45.376Z,11.52
2022-09-18T18:44:14.917Z,11.53
2022-09-18T18:46:43.742Z,11.55
2022-09-18T18:49:15.289Z,11.61
2022-09-18T18:51:46.315Z,11.65
2022-09-18T18:54:22.369Z,11.64
2022-09-18T18:56:52.030Z,11.62
2022-09-18T18:59:25.941Z,11.63
2022-09-18T19:01:58.052Z,11.69
2022-09-18T19:04:28.083Z,11.65
2022-09-18T19:06:56.695Z,11.65
2022-09-18T19:09:26.637Z,11.68
2022-09-18T19:11:55.690Z,11.71
2022-09-18T19:14:33.147Z,11.68
2022-09-18T19:17:00.897Z,11.66
2022-09-18T19:19:29.352Z,11.61
2022-09-18T19:22:00.555Z,11.60
2022-09-18T19:24:30.717Z,11.55
2022-09-18T19:26:59.218Z,11.61
2022-09-18T19:29:28.462Z,11.58
2022-09-18T19:31:57.970Z,11.61
2022-09-18T19:34:26.222Z,11.58
2022-09-18T19:36:57.638Z,11.58
2022-09-18T19:39:24.819Z,11.55
2022-09-18T19:42:05.293Z,11.52
2022-09-18T19:44:44.459Z,11.60
2022-09-18T19:47:24.332Z,11.57
2022-09-18T19:49:55.329Z,11.52
2022-09-18T19:52:24.537Z,11.50
2022-09-18T19:54:53.777Z,11.47
2022-09-18T19:57:24.181Z,11.51
2022-09-18T19:59:57.223Z,11.53
2022-09-18T20:02:25.844Z,11.57
2022-09-18T20:04:53.162Z,11.55
2022-09-18T20:07:20.616Z,11.58
2022-09-18T20:09:50.061Z,11.66
2022-09-18T20:12:18.235Z,11.68
2022-09-18T20:14:47.911Z,11.70
2022-09-18T20:17:15.075Z,11.70
2022-09-18T20:19:43.192Z,11.66
2022-09-18T20:22:10.117Z,11.68
2022-09-18T20:24:37.160Z,11.69
2022-09-18T20:27:04.456Z,11.73
2022-09-18T20:29:34.290Z,11.76
2022-09-18T20:32:02.888Z,11.77
2022-09-18T20:34:30.141Z,11.84
2022-09-18T20:36:57.983Z,11.84
2022-09-18T20:39:25.429Z,11.86
2022-09-18T20:41:52.922Z,11.84
2022-09-18T20:44:20.993Z,11.87
2022-09-18T20:46:50.496Z,11.86
2022-09-18T20:49:18.845Z,11.93
2022-09-18T20:51:46.146Z,11.92
2022-09-18T20:54:19.844Z,11.89
2022-09-18T20:56:50.032Z,11.87
2022-09-18T20:59:18.756Z,11.85
2022-09-18T21:01:47.307Z,11.84
2022-09-18T21:04:17.558Z,11.85
2022-09-18T21:06:47.095Z,11.84
2022-09-18T21:09:14.708Z,11.79
2022-09-18T21:11:43.861Z,11.83
2022-09-18T21:14:14.896Z,11.76
2022-09-18T21:16:43.281Z,11.76
2022-09-18T21:19:17.442Z,11.75
2022-09-18T21:21:48.643Z,11.80
2022-09-18T21:24:18.350Z,11.84
2022-09-18T21:26:48.029Z,11.89
2022-09-18T21:29:20.855Z,11.85
2022-09-18T21:31:50.651Z,11.86
2022-09-18T21:34:26.917Z,11.82
2022-09-18T21:37:03.386Z,11.82
2022-09-18T21:39:32.798Z,11.82
2022-09-18T21:42:01.655Z,11.78
2022-09-18T21:44:31.847Z,11.76
2022-09-18T21:47:07.967Z,11.78
2022-09-18T21:49:35.428Z,11.81
2022-09-18T21:52:05.447Z,11.81
2022-09-18T21:54:33.670Z,11.80
2022-09-18T21:57:02.050Z,11.86
2022-09-18T21:59:30.872Z,11.85
2022-09-18T22:01:59.198Z,11.88
2022-09-18T22:04:29.548Z,11.89
2022-09-18T22:06:59.121Z,11.86
2022-09-18T22:09:32.715Z,11.84
2022-09-18T22:12:03.431Z,11.87
2022-09-18T22:14:34.003Z,11.87
2022-09-18T22:17:06.985Z,11.83
2022-09-18T22:19:38.076Z,11.85
2022-09-18T22:22:08.578Z,11.83
2022-09-18T22:24:39.635Z,11.82
2022-09-18T22:27:14.235Z,11.78
2022-09-18T22:29:44.050Z,11.77
2022-09-18T22:32:12.657Z,11.73
2022-09-18T22:34:41.831Z,11.72
2022-09-18T22:37:12.199Z,11.73
2022-09-18T22:39:40.356Z,11.77
2022-09-18T22:42:08.355Z,11.74
2022-09-18T22:44:38.230Z,11.73
2022-09-18T22:47:06.199Z,11.76
2022-09-18T22:49:39.111Z,11.74
2022-09-18T22:52:10.187Z,11.77
2022-09-18T22:54:38.333Z,11.73
2022-09-18T22:57:06.784Z,11.76
2022-09-18T22:59:35.524Z,11.78
2022-09-18T23:02:05.883Z,11.75
2022-09-18T23:04:33.698Z,11.76
2022-09-18T23:07:01.415Z,11.77
2022-09-18T23:09:29.416Z,11.71
2022-09-18T23:11:57.771Z,11.77
2022-09-18T23:14:28.026Z,11.72
2022-09-18T23:16:55.972Z,11.69
2022-09-18T23:19:26.815Z,11.68
2022-09-18T23:21:55.301Z,11.58
2022-09-18T23:24:23.471Z,11.54
2022-09-18T23:26:55.787Z,11.54
2022-09-18T23:29:24.631Z,11.48
2022-09-18T23:31:53.473Z,11.47
2022-09-18T23:34:22.483Z,11.47
2022-09-18T23:36:54.896Z,11.45
2022-09-18T23:39:24.934Z,11.47
2022-09-18T23:41:53.491Z,11.46
2022-09-18T23:44:21.910Z,11.51
2022-09-18T23:46:49.678Z,11.42
2022-09-18T23:49:23.537Z,11.38
2022-09-18T23:51:53.729Z,11.39
2022-09-18T23:54:26.892Z,11.33
2022-09-18T23:56:54.670Z,11.38
2022-09-18T23:59:23.830Z,11.38
